Time;durP1;ratioP1;P1;durP2;ratioP2;P2;SDS_P1;SDS_P2;PMS_P1;PMS_P2;Temp;Humidity;BMP_temperature;BMP_pressure;BME280_temperature;BME280_humidity;BME280_pressure;Samples;Min_cycle;Max_cycle;Signal;HPM_P1;HPM_P2
2022/11/24 00:01:32;;;;;;;23.20;9.70;;;7.30;99.90;;;;;;4993809;28;20541;-39
2022/11/24 00:04:00;;;;;;;28.63;10.57;;;7.30;99.90;;;;;;4975811;28;20641;-39
2022/11/24 00:06:27;;;;;;;29.73;9.68;;;7.30;99.90;;;;;;4976567;28;20140;-40
2022/11/24 00:08:54;;;;;;;26.42;9.80;;;7.20;99.90;;;;;;4993213;28;20124;-40
2022/11/24 00:11:23;;;;;;;26.35;9.27;;;7.20;99.90;;;;;;4976171;28;20069;-41
2022/11/24 00:13:50;;;;;;;36.17;9.75;;;7.20;99.90;;;;;;4991057;28;20054;-39
2022/11/24 00:16:19;;;;;;;29.15;8.25;;;7.20;99.90;;;;;;4993131;28;20042;-40
2022/11/24 00:18:47;;;;;;;31.08;8.77;;;7.20;99.90;;;;;;4993189;28;20054;-40
2022/11/24 00:21:13;;;;;;;28.15;8.82;;;7.20;99.90;;;;;;4993270;28;20100;-40
2022/11/24 00:23:40;;;;;;;32.10;8.65;;;7.20;99.90;;;;;;4975996;28;20050;-40
2022/11/24 00:26:08;;;;;;;31.70;8.50;;;7.20;99.90;;;;;;4992792;28;20172;-38
2022/11/24 00:28:35;;;;;;;34.55;8.65;;;7.20;99.90;;;;;;4983450;28;20112;-40
2022/11/24 00:31:02;;;;;;;25.95;8.20;;;7.20;99.90;;;;;;4993288;28;20766;-40
2022/11/24 00:33:30;;;;;;;29.48;7.90;;;7.20;99.90;;;;;;4976505;28;20062;-40
2022/11/24 00:35:57;;;;;;;27.40;8.48;;;7.20;99.90;;;;;;4991711;28;20050;-40
2022/11/24 00:38:24;;;;;;;26.77;8.15;;;7.10;99.90;;;;;;4976624;28;20069;-39
2022/11/24 00:40:51;;;;;;;26.42;8.60;;;7.10;99.90;;;;;;4990346;28;20368;-39
2022/11/24 00:43:18;;;;;;;36.47;8.20;;;7.20;99.90;;;;;;4975289;28;20062;-40
2022/11/24 00:45:45;;;;;;;25.08;7.57;;;7.10;99.90;;;;;;4992199;28;20069;-39
2022/11/24 00:48:12;;;;;;;24.48;7.50;;;7.10;99.90;;;;;;4992427;28;20050;-41
2022/11/24 00:50:40;;;;;;;29.65;7.47;;;7.10;99.90;;;;;;4990837;28;20108;-39
2022/11/24 00:53:07;;;;;;;33.92;7.65;;;7.10;99.90;;;;;;4985126;28;20046;-41
2022/11/24 00:55:34;;;;;;;37.40;8.25;;;7.10;99.90;;;;;;4970971;28;20062;-41
2022/11/24 00:58:01;;;;;;;29.58;7.32;;;7.10;99.90;;;;;;4992912;28;20049;-39
2022/11/24 01:00:28;;;;;;;30.27;7.28;;;7.10;99.90;;;;;;4991879;28;20046;-41
2022/11/24 01:02:55;;;;;;;35.63;7.65;;;7.10;99.90;;;;;;4993580;28;20054;-41
2022/11/24 01:05:22;;;;;;;28.83;7.10;;;7.10;99.90;;;;;;4993124;28;20057;-40
2022/11/24 01:07:50;;;;;;;35.80;8.38;;;7.10;99.90;;;;;;4991306;28;20058;-40
2022/11/24 01:10:17;;;;;;;33.97;7.50;;;7.10;99.90;;;;;;4992738;28;20043;-39
2022/11/24 01:12:44;;;;;;;34.60;7.57;;;7.10;99.90;;;;;;4975097;28;20434;-40
2022/11/24 01:15:11;;;;;;;33.08;6.78;;;7.00;99.90;;;;;;4973357;28;20042;-39
2022/11/24 01:17:38;;;;;;;37.28;6.93;;;7.00;99.90;;;;;;4975861;28;20065;-40
2022/11/24 01:20:05;;;;;;;35.58;6.78;;;7.00;99.90;;;;;;4991660;28;20054;-40
2022/11/24 01:22:33;;;;;;;29.90;6.30;;;7.00;99.90;;;;;;4974562;28;20050;-41
2022/11/24 01:25:02;;;;;;;38.13;7.68;;;7.00;99.90;;;;;;4991712;28;20058;-40
2022/11/24 01:27:28;;;;;;;26.70;6.20;;;7.10;99.90;;;;;;4974335;28;20053;-40
2022/11/24 01:29:55;;;;;;;33.67;6.53;;;7.00;99.90;;;;;;4991677;28;20046;-40
2022/11/24 01:32:22;;;;;;;30.88;5.72;;;7.00;99.90;;;;;;4974252;28;20054;-40
2022/11/24 01:34:49;;;;;;;33.38;6.30;;;7.00;99.90;;;;;;4972190;28;20062;-38
2022/11/24 01:37:16;;;;;;;35.53;6.25;;;7.00;99.90;;;;;;4973404;28;20053;-39
2022/11/24 01:39:43;;;;;;;35.17;6.82;;;7.00;99.90;;;;;;4990358;28;20069;-40
2022/11/24 01:42:11;;;;;;;31.45;5.57;;;7.00;99.90;;;;;;4991328;28;20042;-40
2022/11/24 01:44:38;;;;;;;33.10;6.55;;;7.00;99.90;;;;;;4990059;28;20077;-41
2022/11/24 01:47:06;;;;;;;37.25;6.00;;;7.00;99.90;;;;;;4985495;28;20042;-41
2022/11/24 01:49:37;;;;;;;36.67;6.63;;;7.00;99.90;;;;;;4992057;28;20050;-41
2022/11/24 01:52:05;;;;;;;;;;;7.00;99.90;;;;;;4974301;28;20438;-40
2022/11/24 01:54:34;;;;;;;37.72;5.90;;;7.00;99.90;;;;;;4990021;28;19944;-41
2022/11/24 01:57:04;;;;;;;41.88;6.20;;;7.00;99.90;;;;;;4990528;28;20039;-40
2022/11/24 01:59:32;;;;;;;39.28;6.30;;;7.00;99.90;;;;;;4975387;28;20051;-41
2022/11/24 02:01:59;;;;;;;29.30;5.85;;;6.90;99.90;;;;;;4975467;28;20054;-40
2022/11/24 02:04:28;;;;;;;33.55;6.97;;;6.90;99.90;;;;;;4989662;28;20050;-39
2022/11/24 02:06:54;;;;;;;42.40;7.05;;;6.90;99.90;;;;;;4990430;28;20062;-40
2022/11/24 02:09:22;;;;;;;45.15;8.45;;;6.90;99.90;;;;;;4992609;28;20054;-40
2022/11/24 02:11:49;;;;;;;41.95;8.32;;;6.90;99.90;;;;;;4974716;28;20046;-40
2022/11/24 02:14:17;;;;;;;28.92;7.15;;;6.90;99.90;;;;;;4990215;28;20058;-41
2022/11/24 02:16:48;;;;;;;35.40;6.05;;;7.00;99.90;;;;;;4974696;28;20050;-39
2022/11/24 02:19:18;;;;;;;31.30;6.07;;;6.90;99.90;;;;;;4986802;28;20050;-40
2022/11/24 02:21:45;;;;;;;37.30;5.93;;;7.00;99.90;;;;;;4981303;28;20050;-40
2022/11/24 02:24:14;;;;;;;31.35;6.03;;;6.90;99.90;;;;;;4991896;28;20108;-40
2022/11/24 02:26:43;;;;;;;34.47;6.25;;;6.90;99.90;;;;;;4983808;28;20051;-40
2022/11/24 02:29:14;;;;;;;31.85;5.18;;;7.00;99.90;;;;;;4984730;28;21275;-41
2022/11/24 02:31:41;;;;;;;34.88;6.35;;;7.00;99.90;;;;;;4986299;28;20133;-41
2022/11/24 02:34:08;;;;;;;39.33;6.40;;;7.00;99.90;;;;;;4974074;28;20057;-40
2022/11/24 02:36:35;;;;;;;35.47;5.72;;;7.00;99.90;;;;;;4992686;28;20080;-41
2022/11/24 02:39:02;;;;;;;29.67;5.38;;;7.00;99.90;;;;;;4973549;28;20050;-40
2022/11/24 02:41:29;;;;;;;37.53;6.03;;;7.00;99.90;;;;;;4991862;28;20049;-41
2022/11/24 02:44:00;;;;;;;32.22;5.40;;;7.10;99.90;;;;;;4991212;28;20105;-41
2022/11/24 02:46:27;;;;;;;26.27;4.78;;;7.10;99.90;;;;;;4990681;28;20494;-40
2022/11/24 02:48:54;;;;;;;41.88;5.50;;;7.10;99.90;;;;;;4991752;28;20046;-40
2022/11/24 02:51:21;;;;;;;37.55;5.68;;;7.10;99.90;;;;;;4973021;28;20046;-40
2022/11/24 02:53:48;;;;;;;38.85;5.72;;;7.10;99.90;;;;;;4991366;28;20051;-40
2022/11/24 02:56:15;;;;;;;37.63;5.22;;;7.00;99.90;;;;;;4991893;28;20202;-38
2022/11/24 02:58:42;;;;;;;37.17;5.25;;;7.10;99.90;;;;;;4989193;28;20058;-40
2022/11/24 03:01:10;;;;;;;37.40;6.13;;;7.10;99.90;;;;;;4974716;28;20478;-41
2022/11/24 03:03:37;;;;;;;37.25;5.60;;;7.10;99.90;;;;;;4991890;28;20062;-40
2022/11/24 03:06:04;;;;;;;27.83;4.68;;;7.10;99.90;;;;;;4992172;28;20058;-38
2022/11/24 03:08:31;;;;;;;45.67;6.05;;;7.20;99.90;;;;;;4995049;28;20046;-41
2022/11/24 03:10:58;;;;;;;31.30;4.85;;;7.20;99.90;;;;;;4975943;28;20387;-40
2022/11/24 03:13:25;;;;;;;33.17;5.57;;;7.20;99.90;;;;;;4988260;28;20046;-39
2022/11/24 03:15:52;;;;;;;31.55;5.53;;;7.30;99.90;;;;;;4995109;28;20449;-38
2022/11/24 03:18:20;;;;;;;30.85;4.65;;;7.30;99.90;;;;;;4975789;28;20042;-40
2022/11/24 03:20:47;;;;;;;29.85;5.20;;;7.30;99.90;;;;;;4995505;28;20437;-40
2022/11/24 03:23:14;;;;;;;37.72;5.32;;;7.40;99.90;;;;;;4976100;28;20057;-37
2022/11/24 03:25:41;;;;;;;33.95;5.43;;;7.40;99.90;;;;;;4994613;28;20540;-41
2022/11/24 03:28:08;;;;;;;29.70;4.78;;;7.40;99.90;;;;;;4993548;28;20073;-41
2022/11/24 03:30:35;;;;;;;32.53;5.53;;;7.50;99.90;;;;;;4977097;28;20057;-39
2022/11/24 03:33:03;;;;;;;26.73;5.38;;;7.50;99.90;;;;;;4995293;28;20061;-41
2022/11/24 03:35:32;;;;;;;28.75;4.70;;;7.50;99.90;;;;;;4995129;28;20046;-39
2022/11/24 03:37:59;;;;;;;25.60;3.90;;;7.50;99.90;;;;;;4977246;28;20453;-41
2022/11/24 03:40:29;;;;;;;30.67;4.32;;;7.50;99.90;;;;;;4975788;28;20054;-39
2022/11/24 03:42:55;;;;;;;24.55;4.05;;;7.50;99.90;;;;;;4976721;28;20058;-41
2022/11/24 03:45:22;;;;;;;27.67;4.40;;;7.50;99.90;;;;;;4976240;28;20056;-40
2022/11/24 03:47:50;;;;;;;29.17;4.97;;;7.50;99.90;;;;;;4966478;28;20047;-40
2022/11/24 03:50:17;;;;;;;29.75;4.22;;;7.40;99.90;;;;;;4993932;28;20130;-40
2022/11/24 03:52:46;;;;;;;29.60;5.22;;;7.40;99.90;;;;;;4995270;28;20050;-41
2022/11/24 03:55:12;;;;;;;35.97;4.63;;;7.30;99.90;;;;;;4992814;28;20038;-39
2022/11/24 03:57:39;;;;;;;32.05;4.10;;;7.30;99.90;;;;;;4974907;28;20499;-40
2022/11/24 04:00:08;;;;;;;32.92;4.72;;;7.30;99.90;;;;;;4975866;28;20057;-40
2022/11/24 04:02:35;;;;;;;26.52;4.65;;;7.30;99.90;;;;;;4993826;28;20057;-39
2022/11/24 04:05:02;;;;;;;30.65;4.70;;;7.30;99.90;;;;;;4994743;28;20058;-41
2022/11/24 04:07:28;;;;;;;23.90;4.15;;;7.30;99.90;;;;;;4993759;28;20046;-40
2022/11/24 04:09:57;;;;;;;37.63;4.70;;;7.30;99.90;;;;;;4992212;28;20046;-40
2022/11/24 04:15:08;;;;;;;28.80;4.32;;;7.30;99.90;;;;;;4993530;28;20483;-40
2022/11/24 04:17:35;;;;;;;22.98;4.18;;;7.30;99.90;;;;;;4977284;28;20052;-40
2022/11/24 04:20:02;;;;;;;29.55;4.65;;;7.30;99.90;;;;;;4992058;28;20085;-40
2022/11/24 04:22:29;;;;;;;35.35;4.80;;;7.30;99.90;;;;;;4991742;28;20050;-40
2022/11/24 04:24:57;;;;;;;34.15;4.10;;;7.30;99.90;;;;;;4993063;28;20463;-41
2022/11/24 04:27:23;;;;;;;21.23;3.95;;;7.30;99.90;;;;;;4993283;28;20466;-40
2022/11/24 04:29:50;;;;;;;24.73;4.18;;;7.30;99.90;;;;;;4975248;28;20133;-40
2022/11/24 04:32:17;;;;;;;24.48;3.88;;;7.30;99.90;;;;;;4987315;28;20059;-40
2022/11/24 04:34:44;;;;;;;30.58;4.85;;;7.30;99.90;;;;;;4973191;28;20054;-41
2022/11/24 04:37:11;;;;;;;25.55;4.15;;;7.20;99.90;;;;;;4976724;28;20077;-39
2022/11/24 04:39:37;;;;;;;26.67;3.95;;;7.20;99.90;;;;;;4992281;28;20142;-40
2022/11/24 04:42:05;;;;;;;25.00;4.70;;;7.20;99.90;;;;;;4985540;28;20138;-40
2022/11/24 04:44:32;;;;;;;28.75;5.13;;;7.20;99.90;;;;;;4972799;28;20838;-41
2022/11/24 04:46:59;;;;;;;19.73;3.67;;;7.10;99.90;;;;;;4991699;28;20133;-40
2022/11/24 04:49:26;;;;;;;32.17;4.32;;;7.10;99.90;;;;;;4975134;28;20081;-41
2022/11/24 04:51:53;;;;;;;20.92;3.83;;;7.10;99.90;;;;;;4974777;28;20094;-40
2022/11/24 04:54:20;;;;;;;27.67;4.55;;;7.10;99.90;;;;;;4984787;28;20148;-39
2022/11/24 04:56:49;;;;;;;24.25;4.07;;;7.10;99.90;;;;;;4972851;28;20093;-41
2022/11/24 04:59:21;;;;;;;22.92;3.65;;;7.10;99.90;;;;;;4974474;28;20061;-41
2022/11/24 05:01:47;;;;;;;24.13;3.45;;;7.10;99.90;;;;;;4973942;28;20663;-40
2022/11/24 05:04:15;;;;;;;26.50;4.13;;;7.00;99.90;;;;;;4992066;28;20100;-41
2022/11/24 05:06:42;;;;;;;26.25;4.25;;;7.00;99.90;;;;;;4976453;28;20085;-39
2022/11/24 05:09:15;;;;;;;18.45;3.55;;;7.00;99.90;;;;;;4992498;28;20458;-41
2022/11/24 05:11:42;;;;;;;24.70;3.50;;;7.00;99.90;;;;;;4993863;28;20060;-41
2022/11/24 05:14:09;;;;;;;29.33;4.50;;;7.00;99.90;;;;;;4990961;28;20581;-42
2022/11/24 05:16:37;;;;;;;25.95;4.22;;;6.90;99.90;;;;;;4988694;28;20108;-40
2022/11/24 05:19:03;;;;;;;19.50;3.92;;;6.90;99.90;;;;;;4973935;28;20105;-39
2022/11/24 05:21:30;;;;;;;31.98;5.18;;;6.90;99.90;;;;;;4971293;28;20453;-39
2022/11/24 05:23:57;;;;;;;28.42;5.30;;;6.90;99.90;;;;;;4992115;28;20042;-41
2022/11/24 05:26:24;;;;;;;26.27;4.68;;;6.80;99.90;;;;;;4989485;28;20077;-40
2022/11/24 05:28:51;;;;;;;25.63;4.13;;;6.80;99.90;;;;;;4992723;28;20085;-40
2022/11/24 05:31:17;;;;;;;25.13;4.07;;;6.80;99.90;;;;;;4991277;28;20050;-38
2022/11/24 05:33:45;;;;;;;24.45;4.18;;;6.80;99.90;;;;;;4967321;28;20090;-38
2022/11/24 05:36:51;;;;;;;27.73;3.83;;;6.80;99.90;;;;;;4969604;28;20046;-40
2022/11/24 05:38:59;;;;;;;22.08;3.65;;;6.80;99.90;;;;;;4989303;28;20053;-39
2022/11/24 05:41:26;;;;;;;19.88;4.35;;;6.80;99.90;;;;;;4991934;28;20227;-40
2022/11/24 05:43:53;;;;;;;29.13;4.60;;;6.80;99.90;;;;;;4989041;28;20050;-40
2022/11/24 05:46:20;;;;;;;27.08;4.03;;;6.80;99.90;;;;;;4969910;28;20042;-40
2022/11/24 05:48:48;;;;;;;31.33;4.97;;;6.80;99.90;;;;;;4987076;28;20459;-40
2022/11/24 05:51:15;;;;;;;27.25;4.18;;;6.80;99.90;;;;;;4982569;28;20467;-39
2022/11/24 05:53:42;;;;;;;24.48;3.60;;;6.80;99.90;;;;;;4982669;28;20141;-41
2022/11/24 05:56:09;;;;;;;26.85;4.45;;;6.80;99.90;;;;;;4972323;28;20090;-40
2022/11/24 05:58:35;;;;;;;33.10;4.40;;;6.80;99.90;;;;;;4969581;28;20140;-40
2022/11/24 06:01:06;;;;;;;24.65;4.25;;;6.80;99.90;;;;;;4986947;28;20093;-39
2022/11/24 06:03:32;;;;;;;23.27;3.72;;;6.80;99.90;;;;;;4992663;28;20589;-41
2022/11/24 06:06:00;;;;;;;21.40;4.15;;;6.80;99.90;;;;;;4985672;28;20069;-40
2022/11/24 06:08:27;;;;;;;21.20;3.50;;;6.80;99.90;;;;;;4987188;28;20042;-40
2022/11/24 06:10:54;;;;;;;25.67;3.65;;;6.80;99.90;;;;;;4990316;28;20137;-39
2022/11/24 06:13:21;;;;;;;24.80;3.58;;;6.80;99.90;;;;;;4990438;28;20495;-40
2022/11/24 06:15:47;;;;;;;37.15;8.50;;;6.80;99.90;;;;;;4991063;28;20514;-40
2022/11/24 06:18:14;;;;;;;33.35;4.75;;;6.80;99.90;;;;;;4990145;28;20077;-41
2022/11/24 06:20:41;;;;;;;34.13;4.53;;;6.90;99.90;;;;;;4987108;28;20081;-41
2022/11/24 06:23:10;;;;;;;27.63;3.90;;;6.80;99.90;;;;;;4992774;28;20512;-41
2022/11/24 06:25:36;;;;;;;27.63;4.32;;;6.80;99.90;;;;;;4992933;28;20085;-40
2022/11/24 06:28:04;;;;;;;29.58;4.20;;;6.80;99.90;;;;;;4975113;28;20517;-40
2022/11/24 06:30:31;;;;;;;22.15;4.43;;;6.80;99.90;;;;;;4992441;28;20060;-39
2022/11/24 06:32:57;;;;;;;24.15;4.15;;;6.80;99.90;;;;;;4992977;28;20081;-40
2022/11/24 06:35:24;;;;;;;27.90;4.68;;;6.80;99.90;;;;;;4992764;28;20072;-41
2022/11/24 06:37:51;;;;;;;30.02;4.78;;;6.90;99.90;;;;;;4991109;28;20078;-40
2022/11/24 06:40:19;;;;;;;24.95;3.92;;;6.80;99.90;;;;;;4976130;28;20307;-40
2022/11/24 06:42:51;;;;;;;29.77;4.05;;;6.80;99.90;;;;;;4996667;28;20098;-41
2022/11/24 06:45:17;;;;;;;27.08;4.13;;;6.70;99.90;;;;;;4996901;28;20406;-40
2022/11/24 06:47:44;;;;;;;29.45;4.22;;;6.70;99.90;;;;;;4967428;28;20491;-40
2022/11/24 06:50:11;;;;;;;23.23;3.85;;;6.70;99.90;;;;;;4994802;28;20084;-41
2022/11/24 06:52:37;;;;;;;32.33;4.28;;;6.70;99.90;;;;;;4979221;28;20051;-41
2022/11/24 06:55:05;;;;;;;22.48;3.83;;;6.60;99.90;;;;;;4996270;28;20086;-42
2022/11/24 06:57:34;;;;;;;26.17;4.05;;;6.60;99.90;;;;;;4979072;28;20108;-41
2022/11/24 07:00:00;;;;;;;24.45;4.30;;;6.60;99.90;;;;;;4979029;28;20047;-41
2022/11/24 07:02:27;;;;;;;24.15;4.53;;;6.60;99.90;;;;;;4995635;28;20074;-41
2022/11/24 07:04:54;;;;;;;28.15;4.32;;;6.60;99.90;;;;;;4979068;28;20514;-40
2022/11/24 07:07:21;;;;;;;27.35;4.90;;;6.60;99.90;;;;;;4979083;28;20089;-41
2022/11/24 07:09:47;;;;;;;26.30;4.63;;;6.60;99.90;;;;;;4979036;28;20085;-42
2022/11/24 07:12:14;;;;;;;20.85;4.32;;;6.60;99.90;;;;;;4995887;28;20051;-40
2022/11/24 07:14:42;;;;;;;33.65;5.45;;;6.60;99.90;;;;;;4979071;28;20442;-40
2022/11/24 07:17:09;;;;;;;35.38;5.45;;;6.60;99.90;;;;;;4995391;28;20140;-41
2022/11/24 07:19:39;;;;;;;24.42;4.65;;;6.60;99.90;;;;;;4995747;28;20078;-40
2022/11/24 07:22:06;;;;;;;25.35;4.70;;;6.60;99.90;;;;;;4996039;28;20050;-41
2022/11/24 07:24:32;;;;;;;28.83;5.03;;;6.60;99.90;;;;;;4978507;28;20524;-40
2022/11/24 07:26:59;;;;;;;26.83;5.45;;;6.60;99.90;;;;;;4978516;28;20451;-40
2022/11/24 07:29:26;;;;;;;29.67;5.28;;;6.70;99.90;;;;;;4994739;28;20078;-42
2022/11/24 07:31:54;;;;;;;31.90;5.40;;;6.70;99.90;;;;;;4978475;28;20096;-41
2022/11/24 07:34:21;;;;;;;27.65;5.28;;;6.70;99.90;;;;;;4974921;28;20086;-41
2022/11/24 07:36:48;;;;;;;26.38;5.00;;;6.70;99.90;;;;;;4976422;28;20043;-42
2022/11/24 07:39:15;;;;;;;30.35;4.80;;;6.70;99.90;;;;;;4976495;28;20102;-41
2022/11/24 07:41:42;;;;;;;26.13;5.28;;;6.80;99.90;;;;;;4959351;28;20053;-41
2022/11/24 07:44:09;;;;;;;27.17;5.63;;;6.80;99.90;;;;;;4955801;28;20129;-39
2022/11/24 07:46:36;;;;;;;26.65;5.93;;;6.80;99.90;;;;;;4975350;28;20047;-41
2022/11/24 07:49:04;;;;;;;27.83;6.03;;;6.80;99.90;;;;;;4959260;28;20122;-41
2022/11/24 07:51:30;;;;;;;28.52;6.63;;;6.80;99.90;;;;;;4975458;28;20086;-40
2022/11/24 07:53:57;;;;;;;32.80;6.63;;;6.90;99.90;;;;;;4976026;28;20082;-41
2022/11/24 07:56:24;;;;;;;26.73;6.28;;;6.80;99.90;;;;;;4958309;28;20133;-39
2022/11/24 07:58:51;;;;;;;31.50;6.75;;;6.90;99.90;;;;;;4974561;28;20139;-40
2022/11/24 08:01:18;;;;;;;24.02;7.78;;;6.90;99.90;;;;;;4969077;28;20079;-41
2022/11/24 08:03:44;;;;;;;27.95;8.20;;;6.90;99.90;;;;;;4960232;28;20078;-40
2022/11/24 08:06:13;;;;;;;32.67;7.28;;;6.90;99.90;;;;;;4975824;28;20462;-41
2022/11/24 08:08:39;;;;;;;33.22;9.32;;;6.80;99.90;;;;;;4958907;28;20145;-41
2022/11/24 08:11:07;;;;;;;32.92;9.13;;;6.90;99.90;;;;;;4974842;28;20523;-39
2022/11/24 08:13:34;;;;;;;31.98;7.03;;;7.00;99.90;;;;;;4975551;28;20051;-40
2022/11/24 08:16:04;;;;;;;24.52;6.63;;;7.00;99.90;;;;;;4958283;28;20082;-38
2022/11/24 08:18:31;;;;;;;26.15;6.95;;;7.00;99.90;;;;;;4958186;28;20050;-40
2022/11/24 08:20:58;;;;;;;29.35;7.43;;;7.00;99.90;;;;;;4974120;28;20086;-40
2022/11/24 08:23:26;;;;;;;27.42;7.57;;;7.10;99.90;;;;;;4974809;28;20058;-41
2022/11/24 08:25:53;;;;;;;37.28;8.52;;;7.10;99.90;;;;;;4958184;28;20082;-40
2022/11/24 08:28:20;;;;;;;26.38;6.43;;;7.10;99.90;;;;;;4974371;28;20565;-38
2022/11/24 08:30:47;;;;;;;27.00;7.43;;;7.20;99.90;;;;;;4957627;28;20133;-40
2022/11/24 08:33:13;;;;;;;24.60;6.57;;;7.20;99.90;;;;;;4959486;28;20051;-41
2022/11/24 08:35:40;;;;;;;28.08;6.60;;;7.30;99.90;;;;;;4967043;28;20098;-42
2022/11/24 08:38:07;;;;;;;35.50;7.40;;;7.30;99.90;;;;;;4957953;28;20094;-40
2022/11/24 08:40:35;;;;;;;26.15;7.03;;;7.40;99.90;;;;;;4974862;28;20054;-40
2022/11/24 08:43:02;;;;;;;33.08;7.22;;;7.40;99.90;;;;;;4957635;28;20055;-40
2022/11/24 08:45:29;;;;;;;21.13;6.43;;;7.50;99.90;;;;;;4974567;28;20125;-41
2022/11/24 08:47:56;;;;;;;19.80;6.15;;;7.50;99.90;;;;;;4961128;28;20111;-41
2022/11/24 08:50:23;;;;;;;24.98;5.97;;;7.50;99.90;;;;;;4972995;28;20113;-39
2022/11/24 08:52:51;;;;;;;23.67;5.82;;;7.50;99.90;;;;;;4974919;28;20097;-40
2022/11/24 08:55:18;;;;;;;24.58;6.57;;;7.60;99.90;;;;;;4974554;28;20458;-41
2022/11/24 08:57:46;;;;;;;22.30;4.95;;;7.60;99.90;;;;;;4974443;28;20090;-41
2022/11/24 09:00:20;;;;;;;20.95;5.90;;;7.60;99.90;;;;;;4974215;28;20466;-41
2022/11/24 09:02:53;;;;;;;25.35;5.10;;;7.70;99.90;;;;;;4956527;28;20043;-41
2022/11/24 09:05:20;;;;;;;17.65;4.43;;;7.70;99.90;;;;;;4974217;28;20090;-41
2022/11/24 09:07:47;;;;;;;14.98;4.63;;;7.80;99.90;;;;;;4956340;28;20054;-41
2022/11/24 09:10:13;;;;;;;13.10;4.07;;;7.80;99.90;;;;;;4974499;28;20145;-40
2022/11/24 09:12:40;;;;;;;15.32;4.65;;;7.90;99.90;;;;;;4974020;28;20569;-40
2022/11/24 09:15:09;;;;;;;12.00;3.47;;;7.90;99.90;;;;;;4974168;28;20086;-40
2022/11/24 09:17:36;;;;;;;11.98;3.38;;;7.90;99.90;;;;;;4956639;28;20078;-41
2022/11/24 09:20:03;;;;;;;11.65;3.42;;;7.90;99.90;;;;;;4956182;28;20054;-41
2022/11/24 09:22:30;;;;;;;12.55;3.28;;;8.00;99.90;;;;;;4957215;28;20051;-41
2022/11/24 09:24:57;;;;;;;12.73;3.13;;;8.10;99.90;;;;;;4973941;28;20047;-40
2022/11/24 09:27:24;;;;;;;9.90;2.60;;;8.10;99.90;;;;;;4974028;28;20455;-40
2022/11/24 09:29:51;;;;;;;9.77;2.47;;;8.20;99.90;;;;;;4960017;28;20055;-41
2022/11/24 09:32:19;;;;;;;13.15;3.00;;;8.20;99.90;;;;;;4952129;28;20125;-40
2022/11/24 09:34:46;;;;;;;9.38;2.92;;;8.30;99.90;;;;;;4974155;28;20085;-40
2022/11/24 09:37:13;;;;;;;10.52;3.53;;;8.30;99.90;;;;;;4973991;28;20051;-38
2022/11/24 09:39:39;;;;;;;7.68;2.90;;;8.30;99.90;;;;;;4973354;28;20086;-40
2022/11/24 09:42:09;;;;;;;8.20;2.90;;;8.40;99.90;;;;;;4973856;28;20055;-41
2022/11/24 09:45:01;;;;;;;7.28;2.58;;;8.40;99.90;;;;;;4973455;28;20126;-40
2022/11/24 09:47:34;;;;;;;8.80;2.92;;;8.50;99.90;;;;;;4973994;28;20047;-39
2022/11/24 09:50:03;;;;;;;11.98;3.20;;;8.50;99.90;;;;;;4973150;28;20110;-39
2022/11/24 09:52:38;;;;;;;8.20;2.90;;;8.60;99.90;;;;;;4972987;28;20090;-40
2022/11/24 09:55:11;;;;;;;12.35;3.40;;;8.70;99.90;;;;;;4973798;28;20099;-40
2022/11/24 09:57:38;;;;;;;11.30;3.63;;;8.70;99.90;;;;;;4956358;28;20491;-41
2022/11/24 10:00:11;;;;;;;9.27;3.47;;;8.80;99.90;;;;;;4956359;28;20058;-40
2022/11/24 10:02:39;;;;;;;6.30;2.97;;;8.90;99.90;;;;;;4973120;28;20467;-40
2022/11/24 10:05:06;;;;;;;10.85;2.97;;;8.90;99.90;;;;;;4973318;28;20602;-39
2022/11/24 10:07:37;;;;;;;6.10;3.05;;;8.90;99.90;;;;;;4956473;28;20090;-40
2022/11/24 10:10:06;;;;;;;6.88;3.03;;;9.00;99.90;;;;;;4956741;28;20054;-41
2022/11/24 10:12:41;;;;;;;12.80;3.78;;;9.00;99.90;;;;;;4955897;28;20145;-41
2022/11/24 10:15:29;;;;;;;11.50;3.97;;;9.00;99.90;;;;;;4973578;28;20137;-39
2022/11/24 10:18:12;;;;;;;8.98;3.75;;;9.10;99.90;;;;;;4960198;28;20554;-41
2022/11/24 10:20:45;;;;;;;10.98;4.38;;;9.10;99.90;;;;;;4960624;28;20074;-41
2022/11/24 10:23:20;;;;;;;9.23;4.47;;;9.10;99.90;;;;;;4976967;28;20435;-39
2022/11/24 10:25:49;;;;;;;9.45;4.18;;;9.10;99.90;;;;;;4960308;28;20103;-41
2022/11/24 10:28:16;;;;;;;10.02;4.35;;;9.10;99.90;;;;;;4959828;28;20050;-40
2022/11/24 10:30:43;;;;;;;11.68;4.63;;;9.10;99.90;;;;;;4977363;28;20145;-41
2022/11/24 10:33:16;;;;;;;10.93;4.60;;;9.10;99.90;;;;;;4977286;28;20055;-42
2022/11/24 10:35:45;;;;;;;11.18;4.80;;;9.20;99.90;;;;;;4959617;28;20074;-42
2022/11/24 10:38:16;;;;;;;10.57;4.85;;;9.30;99.90;;;;;;4960160;28;20102;-40
2022/11/24 10:40:44;;;;;;;12.30;4.88;;;9.50;99.90;;;;;;4977444;28;20054;-40
2022/11/24 10:43:11;;;;;;;12.57;5.15;;;9.60;99.90;;;;;;4976853;28;20124;-39
2022/11/24 10:45:38;;;;;;;11.45;5.15;;;9.70;99.90;;;;;;4977041;28;20058;-40
2022/11/24 10:48:07;;;;;;;17.20;6.03;;;9.80;99.90;;;;;;4971617;28;20069;-40
2022/11/24 10:50:36;;;;;;;12.60;5.47;;;10.00;99.90;;;;;;4976192;28;20546;-40
2022/11/24 10:53:06;;;;;;;18.25;5.78;;;10.10;99.90;;;;;;4959889;28;20055;-40
2022/11/24 10:56:05;;;;;;;12.30;4.95;;;10.10;99.90;;;;;;4959801;28;20046;-41
2022/11/24 10:58:33;;;;;;;11.00;5.03;;;10.30;99.90;;;;;;4968969;28;20431;-40
2022/11/24 11:01:00;;;;;;;13.32;5.35;;;10.30;99.90;;;;;;4976139;28;20423;-39
2022/11/24 11:03:27;;;;;;;14.13;5.30;;;10.30;99.90;;;;;;4976872;28;20133;-41
2022/11/24 11:05:56;;;;;;;14.52;5.70;;;10.40;99.90;;;;;;4959577;28;20082;-41
2022/11/24 11:08:25;;;;;;;14.35;5.80;;;10.50;99.90;;;;;;4976562;28;20051;-40
2022/11/24 11:11:07;;;;;;;9.88;5.22;;;10.40;99.90;;;;;;4959499;28;20133;-41
2022/11/24 11:13:34;;;;;;;14.02;5.85;;;10.50;99.90;;;;;;4975971;28;20055;-41
2022/11/24 11:16:00;;;;;;;17.10;6.10;;;10.50;99.90;;;;;;4976214;28;20059;-40
2022/11/24 11:18:30;;;;;;;16.75;6.05;;;10.60;99.90;;;;;;4976651;28;20051;-40
2022/11/24 11:21:00;;;;;;;11.52;5.22;;;10.60;99.90;;;;;;4959011;28;20566;-40
2022/11/24 11:23:29;;;;;;;17.92;6.07;;;10.60;99.90;;;;;;4976654;28;20046;-42
2022/11/24 11:26:19;;;;;;;22.77;6.10;;;10.60;99.90;;;;;;4959111;28;20491;-41
2022/11/24 11:29:02;;;;;;;13.88;5.88;;;10.60;99.90;;;;;;4957749;28;20491;-39
2022/11/24 11:31:30;;;;;;;17.40;7.03;;;10.70;99.90;;;;;;4973758;28;20062;-40
2022/11/24 11:34:01;;;;;;;18.20;5.93;;;10.70;99.90;;;;;;4958524;28;20051;-40
2022/11/24 11:36:30;;;;;;;19.25;6.53;;;10.80;99.90;;;;;;4976357;28;20472;-41
2022/11/24 11:38:57;;;;;;;18.50;6.07;;;10.80;99.90;;;;;;4976312;28;20100;-38
2022/11/24 11:41:25;;;;;;;20.33;6.35;;;10.80;99.90;;;;;;4975620;28;20051;-41
2022/11/24 11:43:57;;;;;;;14.68;5.07;;;10.80;99.90;;;;;;4958180;28;20078;-41
2022/11/24 11:46:24;;;;;;;15.48;5.78;;;10.90;99.90;;;;;;4975967;28;20101;-41
2022/11/24 11:48:51;;;;;;;19.42;6.13;;;11.00;99.90;;;;;;4958765;28;20126;-40
2022/11/24 11:51:40;;;;;;;15.07;5.50;;;11.00;99.90;;;;;;4958987;28;20101;-41
2022/11/24 11:54:08;;;;;;;17.70;5.55;;;11.00;99.90;;;;;;4975818;28;20058;-40
2022/11/24 11:56:39;;;;;;;15.02;4.63;;;11.00;99.90;;;;;;4975228;28;20137;-39
2022/11/24 11:59:16;;;;;;;19.80;6.55;;;11.10;99.90;;;;;;4949813;28;20046;-41
2022/11/24 12:02:02;;;;;;;22.00;6.10;;;11.10;99.90;;;;;;4974339;28;20095;-39
2022/11/24 12:04:38;;;;;;;13.25;5.32;;;11.10;99.90;;;;;;4973886;28;20055;-40
2022/11/24 12:07:20;;;;;;;24.80;5.40;;;11.20;99.90;;;;;;4956380;29;20468;-39
2022/11/24 12:09:53;;;;;;;14.32;4.45;;;11.20;99.90;;;;;;4956274;29;20496;-40
2022/11/24 12:12:32;;;;;;;15.15;4.30;;;11.30;99.90;;;;;;4958026;28;20055;-39
2022/11/24 12:15:01;;;;;;;13.13;4.35;;;11.30;99.90;;;;;;4958412;28;20086;-40
2022/11/24 12:17:30;;;;;;;23.15;5.35;;;11.30;99.90;;;;;;4939112;29;20111;-41
2022/11/24 12:20:06;;;;;;;15.93;4.53;;;11.30;99.90;;;;;;4939038;29;20500;-40
2022/11/24 12:22:40;;;;;;;19.67;4.55;;;11.30;99.90;;;;;;4956508;29;20054;-41
2022/11/24 12:25:17;;;;;;;17.55;4.95;;;11.30;99.90;;;;;;4968204;28;20086;-41
2022/11/24 12:27:48;;;;;;;18.70;4.43;;;11.30;99.90;;;;;;4957937;28;20129;-40
2022/11/24 12:30:15;;;;;;;15.32;4.30;;;11.30;99.90;;;;;;4974887;28;20102;-39
2022/11/24 12:33:08;;;;;;;22.02;4.90;;;11.40;99.90;;;;;;4973552;28;20459;-40
2022/11/24 12:35:37;;;;;;;21.50;4.13;;;11.50;99.90;;;;;;4955934;29;20150;-40
2022/11/24 12:38:15;;;;;;;12.93;3.50;;;11.40;99.90;;;;;;4953722;28;20134;-41
2022/11/24 12:40:51;;;;;;;15.05;3.90;;;11.40;99.90;;;;;;4938201;29;20110;-40
2022/11/24 12:43:19;;;;;;;19.27;3.85;;;11.40;99.90;;;;;;4937653;29;20488;-40
2022/11/24 12:45:51;;;;;;;19.92;4.18;;;11.50;99.90;;;;;;4924457;29;20059;-41
2022/11/24 12:48:37;;;;;;;22.92;3.53;;;11.50;99.90;;;;;;4952666;29;20051;-40
2022/11/24 12:51:04;;;;;;;16.70;3.63;;;11.50;99.90;;;;;;4937887;29;20055;-40
2022/11/24 12:53:32;;;;;;;17.05;3.13;;;11.50;99.90;;;;;;4954112;28;20356;-40
2022/11/24 12:56:04;;;;;;;22.50;3.45;;;11.50;99.90;;;;;;4954225;28;20055;-40